createdAt,value
2019-03-30T00:01:17.011Z,54.73
2019-03-30T00:03:46.678Z,58.53
2019-03-30T00:06:17.256Z,57.83
2019-03-30T00:08:48.589Z,64.03
2019-03-30T00:11:18.389Z,60.10
2019-03-30T00:13:47.633Z,60.53
2019-03-30T00:16:17.284Z,58.50
2019-03-30T00:18:46.666Z,58.20
2019-03-30T00:21:22.927Z,52.37
2019-03-30T00:23:54.217Z,54.63
2019-03-30T00:26:28.696Z,62.90
2019-03-30T00:28:58.657Z,70.70
2019-03-30T00:31:34.066Z,64.20
2019-03-30T00:34:04.422Z,58.53
2019-03-30T00:36:36.994Z,57.37
2019-03-30T00:39:07.652Z,67.37
2019-03-30T00:41:43.985Z,63.53
2019-03-30T00:44:13.976Z,50.00
2019-03-30T00:46:44.675Z,57.47
2019-03-30T00:49:15.415Z,52.67
2019-03-30T00:51:47.981Z,62.27
2019-03-30T00:54:18.165Z,57.23
2019-03-30T00:56:47.890Z,59.77
2019-03-30T00:59:18.277Z,61.47
2019-03-30T01:01:48.433Z,57.60
2019-03-30T01:04:18.416Z,65.43
2019-03-30T01:06:48.909Z,61.00
2019-03-30T01:09:18.553Z,58.17
2019-03-30T01:11:48.114Z,59.13
2019-03-30T01:14:18.066Z,61.63
2019-03-30T01:16:47.570Z,59.13
2019-03-30T01:19:17.247Z,59.33
2019-03-30T01:21:47.199Z,62.33
2019-03-30T01:24:16.314Z,62.00
2019-03-30T01:26:45.407Z,61.97
2019-03-30T01:29:14.652Z,61.07
2019-03-30T01:31:44.295Z,69.93
2019-03-30T01:34:13.612Z,62.03
2019-03-30T01:36:43.049Z,73.23
2019-03-30T01:39:13.259Z,64.67
2019-03-30T01:41:43.443Z,73.93
2019-03-30T01:44:13.170Z,77.37
2019-03-30T01:46:43.401Z,73.03
2019-03-30T01:49:13.584Z,69.60
2019-03-30T01:51:43.713Z,70.90
2019-03-30T01:54:13.353Z,79.53
2019-03-30T01:56:44.000Z,80.73
2019-03-30T01:59:16.416Z,80.47
2019-03-30T02:01:46.432Z,76.23
2019-03-30T02:04:17.335Z,77.33
2019-03-30T02:06:47.624Z,78.70
2019-03-30T02:09:17.653Z,82.73
2019-03-30T02:11:50.571Z,80.17
2019-03-30T02:14:21.001Z,80.50
2019-03-30T02:16:50.658Z,80.53
2019-03-30T02:19:20.032Z,80.33
2019-03-30T02:21:49.258Z,86.60
2019-03-30T02:24:19.991Z,74.60
2019-03-30T02:26:49.652Z,81.37
2019-03-30T02:29:21.266Z,85.07
2019-03-30T02:31:54.405Z,93.00
2019-03-30T02:34:23.702Z,77.17
2019-03-30T02:36:52.838Z,80.67
2019-03-30T02:39:22.005Z,82.23
2019-03-30T02:41:51.314Z,91.93
2019-03-30T02:44:20.900Z,103.63
2019-03-30T02:46:50.034Z,82.77
2019-03-30T02:49:20.344Z,85.97
2019-03-30T02:51:49.554Z,93.97
2019-03-30T02:54:18.670Z,92.10
2019-03-30T02:56:49.495Z,116.93
2019-03-30T02:59:18.922Z,88.97
2019-03-30T03:01:48.179Z,109.37
2019-03-30T03:04:17.348Z,98.20
2019-03-30T03:06:46.855Z,102.70
2019-03-30T03:09:16.236Z,106.63
2019-03-30T03:11:46.713Z,104.87
2019-03-30T03:14:16.031Z,98.70
2019-03-30T03:16:45.317Z,95.83
2019-03-30T03:19:14.458Z,92.03
2019-03-30T03:21:44.275Z,87.27
2019-03-30T03:24:13.630Z,90.87
2019-03-30T03:26:43.067Z,89.60
2019-03-30T03:29:13.214Z,86.83
2019-03-30T03:31:42.351Z,86.80
2019-03-30T03:34:11.474Z,91.07
2019-03-30T03:36:40.634Z,95.13
2019-03-30T03:39:09.776Z,83.17
2019-03-30T03:41:39.463Z,82.97
2019-03-30T03:44:08.873Z,99.60
2019-03-30T03:46:38.037Z,73.37
2019-03-30T03:49:07.499Z,82.70
2019-03-30T03:51:37.210Z,80.77
2019-03-30T03:54:07.620Z,88.00
2019-03-30T03:56:38.477Z,87.47
2019-03-30T03:59:08.147Z,86.50
2019-03-30T04:01:39.066Z,94.57
2019-03-30T04:04:09.538Z,94.80
2019-03-30T04:06:39.552Z,97.20
2019-03-30T04:09:09.091Z,114.80
2019-03-30T04:11:40.299Z,121.60
2019-03-30T04:14:10.116Z,95.37
2019-03-30T04:16:39.360Z,97.83
2019-03-30T04:19:08.594Z,103.00
2019-03-30T04:21:44.317Z,89.73
2019-03-30T04:24:10.160Z,96.97
2019-03-30T04:26:39.483Z,102.53
2019-03-30T04:29:08.885Z,116.37
2019-03-30T04:31:38.244Z,114.17
2019-03-30T04:34:08.453Z,101.27
2019-03-30T04:36:38.076Z,108.67
2019-03-30T04:39:08.714Z,104.97
2019-03-30T04:41:38.747Z,114.77
2019-03-30T04:44:08.023Z,105.70
2019-03-30T04:46:39.525Z,119.60
2019-03-30T04:49:08.748Z,113.77
2019-03-30T04:51:38.162Z,121.33
2019-03-30T04:54:07.716Z,115.60
2019-03-30T04:56:36.884Z,98.40
2019-03-30T04:59:06.583Z,90.70
2019-03-30T05:01:35.739Z,81.30
2019-03-30T05:04:05.550Z,77.67
2019-03-30T05:06:34.831Z,75.80
2019-03-30T05:09:04.441Z,80.73
2019-03-30T05:11:35.020Z,70.77
2019-03-30T05:14:05.630Z,81.20
2019-03-30T05:16:34.781Z,62.30
2019-03-30T05:19:04.191Z,68.10
2019-03-30T05:21:33.442Z,68.13
2019-03-30T05:24:02.616Z,60.07
2019-03-30T05:26:31.979Z,72.30
2019-03-30T05:29:01.195Z,62.97
2019-03-30T05:31:30.494Z,59.77
2019-03-30T05:33:59.656Z,53.07
2019-03-30T05:36:28.821Z,46.97
2019-03-30T05:38:58.158Z,41.80
2019-03-30T05:41:27.493Z,44.53
2019-03-30T05:43:57.232Z,35.67
2019-03-30T05:46:28.348Z,46.17
2019-03-30T05:48:58.204Z,39.77
2019-03-30T05:51:27.550Z,43.33
2019-03-30T05:53:56.808Z,40.37
2019-03-30T05:56:26.674Z,33.60
2019-03-30T05:58:55.941Z,32.60
2019-03-30T06:01:25.044Z,33.63
2019-03-30T06:03:54.373Z,32.93
2019-03-30T06:06:24.961Z,34.77
2019-03-30T06:08:54.223Z,34.30
2019-03-30T06:11:23.821Z,32.07
2019-03-30T06:13:54.034Z,28.60
2019-03-30T06:16:23.274Z,27.77
2019-03-30T06:18:52.536Z,24.87
2019-03-30T06:21:23.636Z,39.10
2019-03-30T06:23:52.975Z,24.53
2019-03-30T06:26:22.235Z,23.83
2019-03-30T06:28:51.501Z,22.93
2019-03-30T06:31:20.640Z,24.10
2019-03-30T06:33:49.886Z,23.70
2019-03-30T06:36:19.164Z,23.33
2019-03-30T06:38:48.384Z,25.03
2019-03-30T06:41:17.694Z,21.00
2019-03-30T06:43:47.808Z,20.50
2019-03-30T06:46:17.014Z,20.43
2019-03-30T06:48:46.412Z,20.20
2019-03-30T06:51:15.637Z,20.37
2019-03-30T06:53:45.433Z,22.43
2019-03-30T06:56:15.303Z,19.03
2019-03-30T06:58:44.446Z,22.03
2019-03-30T07:01:13.608Z,21.07
2019-03-30T07:03:44.100Z,21.20
2019-03-30T07:06:13.557Z,19.73
2019-03-30T07:08:43.550Z,18.83
2019-03-30T07:11:21.109Z,17.53
2019-03-30T07:13:50.968Z,20.77
2019-03-30T07:16:21.792Z,24.40
2019-03-30T07:18:52.523Z,17.53
2019-03-30T07:21:23.863Z,17.87
2019-03-30T07:23:53.463Z,16.97
2019-03-30T07:26:23.840Z,16.93
2019-03-30T07:28:53.205Z,18.13
2019-03-30T07:31:22.776Z,20.87
2019-03-30T07:33:51.933Z,18.33
2019-03-30T07:36:22.974Z,18.03
2019-03-30T07:38:52.040Z,17.43
2019-03-30T07:41:23.300Z,16.80
2019-03-30T07:43:53.813Z,17.77
2019-03-30T07:46:28.033Z,18.00
2019-03-30T07:48:57.732Z,16.23
2019-03-30T07:51:29.009Z,16.97
2019-03-30T07:54:02.774Z,18.90
2019-03-30T07:56:32.081Z,16.77
2019-03-30T07:59:01.478Z,17.87
2019-03-30T08:01:31.316Z,17.77
2019-03-30T08:04:00.564Z,18.93
2019-03-30T08:06:35.887Z,18.07
2019-03-30T08:09:15.993Z,16.63
2019-03-30T08:11:48.449Z,16.17
2019-03-30T08:14:17.780Z,17.60
2019-03-30T08:16:46.899Z,18.07
2019-03-30T08:19:16.404Z,18.37
2019-03-30T08:21:46.940Z,17.47
2019-03-30T08:24:16.255Z,19.23
2019-03-30T08:26:46.310Z,17.20
2019-03-30T08:29:15.535Z,17.23
2019-03-30T08:31:44.822Z,17.40
2019-03-30T08:34:14.089Z,17.90
2019-03-30T08:36:44.140Z,20.43
2019-03-30T08:39:13.228Z,17.13
2019-03-30T08:41:43.674Z,16.43
2019-03-30T08:44:14.546Z,17.13
2019-03-30T08:46:45.354Z,16.00
2019-03-30T08:49:16.324Z,16.83
2019-03-30T08:51:45.576Z,16.40
2019-03-30T08:54:14.909Z,16.53
2019-03-30T08:56:44.608Z,16.73
2019-03-30T08:59:13.759Z,17.27
2019-03-30T09:01:44.697Z,16.87
2019-03-30T09:04:14.209Z,17.30
2019-03-30T09:06:43.517Z,15.10
2019-03-30T09:09:12.582Z,17.80
2019-03-30T09:11:43.441Z,16.77
2019-03-30T09:14:12.759Z,17.70
2019-03-30T09:16:43.783Z,16.13
2019-03-30T09:19:12.998Z,17.40
2019-03-30T09:21:42.103Z,16.33
2019-03-30T09:24:12.416Z,17.43
2019-03-30T09:26:41.505Z,15.93
2019-03-30T09:29:10.655Z,16.63
2019-03-30T09:31:39.875Z,16.87
2019-03-30T09:34:09.614Z,18.90
2019-03-30T09:36:38.894Z,16.73
2019-03-30T09:39:08.223Z,16.07
2019-03-30T09:41:38.483Z,16.40
2019-03-30T09:44:10.533Z,16.73
2019-03-30T09:46:43.839Z,18.03
2019-03-30T09:49:14.356Z,18.83
2019-03-30T09:51:50.840Z,16.07
2019-03-30T09:54:31.880Z,16.83
2019-03-30T09:57:15.826Z,15.47
2019-03-30T09:59:47.824Z,16.53
2019-03-30T10:02:21.882Z,16.43
2019-03-30T10:04:53.693Z,17.30
2019-03-30T10:07:25.217Z,15.60
2019-03-30T10:09:56.598Z,15.83
2019-03-30T10:12:29.284Z,14.83
2019-03-30T10:14:59.825Z,15.57
2019-03-30T10:17:31.545Z,15.53
2019-03-30T10:20:04.837Z,15.83
2019-03-30T10:22:35.325Z,16.47
2019-03-30T10:25:17.129Z,17.43
2019-03-30T10:27:48.339Z,17.43
2019-03-30T10:30:25.177Z,15.70
2019-03-30T10:32:58.647Z,15.40
2019-03-30T10:35:28.556Z,15.53
2019-03-30T10:37:58.580Z,15.83
2019-03-30T10:40:29.892Z,16.63
2019-03-30T10:43:08.616Z,17.67
2019-03-30T10:45:38.410Z,15.80
2019-03-30T10:48:17.317Z,15.80
2019-03-30T10:50:53.342Z,17.77
2019-03-30T10:53:25.446Z,16.13
2019-03-30T10:55:57.845Z,26.77
2019-03-30T10:58:30.896Z,14.83
2019-03-30T11:01:06.108Z,14.80
2019-03-30T11:03:36.470Z,15.00
2019-03-30T11:06:07.324Z,24.10
2019-03-30T11:08:38.727Z,14.53
2019-03-30T11:11:08.247Z,14.47
2019-03-30T11:13:39.240Z,14.30
2019-03-30T11:16:09.388Z,17.10
2019-03-30T11:18:39.905Z,16.73
2019-03-30T11:21:10.839Z,17.07
2019-03-30T11:23:41.027Z,14.83
2019-03-30T11:26:10.773Z,17.37
2019-03-30T11:28:40.060Z,16.73
2019-03-30T11:31:09.715Z,15.03
2019-03-30T11:33:38.965Z,14.73
2019-03-30T11:36:08.656Z,16.17
2019-03-30T11:38:37.785Z,17.40
2019-03-30T11:41:09.284Z,16.83
2019-03-30T11:43:38.336Z,16.63
2019-03-30T11:46:07.614Z,19.20
2019-03-30T11:48:37.635Z,16.27
2019-03-30T11:51:07.211Z,14.80
2019-03-30T11:53:36.492Z,17.83
2019-03-30T11:56:06.664Z,16.43
2019-03-30T11:58:37.066Z,17.30
2019-03-30T12:01:06.690Z,18.33
2019-03-30T12:03:37.424Z,16.57
2019-03-30T12:06:09.371Z,15.97
2019-03-30T12:08:38.910Z,15.07
2019-03-30T12:11:09.147Z,16.23
2019-03-30T12:13:38.514Z,17.30
2019-03-30T12:16:08.026Z,17.47
2019-03-30T12:18:37.417Z,16.87
2019-03-30T12:21:06.795Z,17.57
2019-03-30T12:23:37.596Z,17.57
2019-03-30T12:26:07.807Z,17.20
2019-03-30T12:28:38.769Z,16.77
2019-03-30T12:31:10.038Z,17.67
2019-03-30T12:33:42.774Z,17.47
2019-03-30T12:36:13.231Z,16.80
2019-03-30T12:38:44.128Z,21.30
2019-03-30T12:41:14.740Z,17.07
2019-03-30T12:43:45.048Z,16.90
2019-03-30T12:46:17.727Z,17.13
2019-03-30T12:48:48.182Z,16.93
2019-03-30T12:51:18.316Z,16.53
2019-03-30T12:56:56.946Z,17.97
2019-03-30T12:59:26.237Z,16.03
2019-03-30T13:01:56.288Z,15.37
2019-03-30T13:04:29.133Z,19.30
2019-03-30T13:07:00.103Z,17.87
2019-03-30T13:09:30.024Z,17.33
2019-03-30T13:11:59.174Z,16.83
2019-03-30T13:14:29.489Z,17.57
2019-03-30T13:16:59.953Z,17.37
2019-03-30T13:19:32.162Z,16.90
2019-03-30T13:22:01.747Z,16.33
2019-03-30T13:24:34.968Z,16.13
2019-03-30T13:27:04.781Z,15.97
2019-03-30T13:29:38.129Z,16.63
2019-03-30T13:32:13.721Z,16.60
2019-03-30T13:34:44.233Z,19.73
2019-03-30T13:37:21.106Z,16.07
2019-03-30T13:39:51.273Z,16.07
2019-03-30T13:42:21.515Z,16.37
2019-03-30T13:44:50.689Z,16.73
2019-03-30T13:47:22.027Z,16.23
2019-03-30T13:49:51.989Z,17.13
2019-03-30T13:52:24.615Z,20.77
2019-03-30T13:54:54.375Z,14.40
2019-03-30T13:57:25.168Z,16.17
2019-03-30T13:59:55.439Z,18.10
2019-03-30T14:02:24.705Z,16.33
2019-03-30T14:04:55.558Z,15.33
2019-03-30T14:07:24.933Z,19.03
2019-03-30T14:09:58.434Z,14.40
2019-03-30T14:12:30.744Z,14.07
2019-03-30T14:15:01.617Z,15.50
2019-03-30T14:17:31.386Z,16.33
2019-03-30T14:20:02.255Z,15.73
2019-03-30T14:22:31.493Z,16.80
2019-03-30T14:25:00.951Z,15.90
2019-03-30T14:27:32.441Z,15.43
2019-03-30T14:30:01.724Z,14.57
2019-03-30T14:32:31.159Z,15.77
2019-03-30T14:35:00.618Z,14.60
2019-03-30T14:37:30.362Z,15.23
2019-03-30T14:40:00.672Z,14.90
2019-03-30T14:42:31.367Z,18.20
2019-03-30T14:45:01.966Z,15.43
2019-03-30T14:47:31.994Z,18.37
2019-03-30T14:50:01.376Z,14.47
2019-03-30T14:52:31.865Z,16.33
2019-03-30T14:55:15.339Z,14.37
2019-03-30T14:57:45.663Z,13.90
2019-03-30T15:00:15.653Z,14.37
2019-03-30T15:02:46.696Z,15.73
2019-03-30T15:05:22.489Z,15.73
2019-03-30T15:07:52.146Z,17.07
2019-03-30T15:10:23.730Z,15.83
2019-03-30T15:12:56.555Z,17.67
2019-03-30T15:15:27.026Z,18.03
2019-03-30T15:17:57.162Z,14.77
2019-03-30T15:20:30.429Z,15.90
2019-03-30T15:23:00.434Z,17.13
2019-03-30T15:25:29.936Z,14.40
2019-03-30T15:28:00.096Z,15.30
2019-03-30T15:30:29.427Z,17.00
2019-03-30T15:33:03.444Z,15.73
2019-03-30T15:35:33.890Z,15.50
2019-03-30T15:38:05.347Z,16.40
2019-03-30T15:40:37.704Z,16.40
2019-03-30T15:43:08.564Z,17.13
2019-03-30T15:45:38.023Z,16.50
2019-03-30T15:48:11.692Z,16.50
2019-03-30T15:50:39.105Z,15.40
2019-03-30T15:53:08.988Z,14.40
2019-03-30T15:55:39.552Z,16.37
2019-03-30T15:58:09.498Z,14.97
2019-03-30T16:00:38.892Z,20.87
2019-03-30T16:03:08.110Z,15.20
2019-03-30T16:05:38.486Z,17.63
2019-03-30T16:08:07.787Z,15.10
2019-03-30T16:10:37.117Z,14.37
2019-03-30T16:13:07.091Z,16.60
2019-03-30T16:15:37.163Z,13.63
2019-03-30T16:18:06.659Z,16.67
2019-03-30T16:20:35.984Z,20.13
2019-03-30T16:23:05.955Z,15.93
2019-03-30T16:25:35.919Z,43.33
2019-03-30T16:28:05.223Z,90.47
2019-03-30T16:30:34.787Z,32.53
2019-03-30T16:33:05.253Z,22.63
2019-03-30T16:35:35.719Z,29.57
2019-03-30T16:38:07.221Z,15.07
2019-03-30T16:40:36.867Z,20.60
2019-03-30T16:43:08.379Z,16.37
2019-03-30T16:45:38.980Z,13.30
2019-03-30T16:48:10.248Z,12.93
2019-03-30T16:50:43.673Z,14.80
2019-03-30T16:53:14.821Z,12.43
2019-03-30T16:55:46.870Z,20.87
2019-03-30T16:58:17.609Z,18.63
2019-03-30T17:00:56.759Z,18.20
2019-03-30T17:03:22.077Z,16.27
2019-03-30T17:05:51.828Z,16.23
2019-03-30T17:08:22.374Z,15.57
2019-03-30T17:10:51.810Z,18.80
2019-03-30T17:13:26.469Z,19.57
2019-03-30T17:16:07.076Z,17.83
2019-03-30T17:18:43.561Z,19.70
2019-03-30T17:21:09.316Z,22.40
2019-03-30T17:23:43.765Z,21.10
2019-03-30T17:26:14.824Z,19.13
2019-03-30T17:28:46.222Z,19.83
2019-03-30T17:31:29.254Z,19.90
2019-03-30T17:34:16.953Z,22.73
2019-03-30T17:36:47.644Z,24.27
2019-03-30T17:39:23.432Z,21.10
2019-03-30T17:41:58.217Z,18.83
2019-03-30T17:44:27.495Z,32.30
2019-03-30T17:47:02.176Z,58.73
2019-03-30T17:49:33.674Z,46.70
2019-03-30T17:52:06.266Z,42.17
2019-03-30T17:54:39.781Z,33.03
2019-03-30T17:57:10.696Z,54.53
2019-03-30T17:59:43.513Z,63.97
2019-03-30T18:02:17.666Z,48.43
2019-03-30T18:04:47.673Z,67.07
2019-03-30T18:07:18.763Z,54.07
2019-03-30T18:09:51.875Z,50.70
2019-03-30T18:12:22.448Z,44.67
2019-03-30T18:14:55.754Z,42.27
2019-03-30T18:17:25.497Z,47.30
2019-03-30T18:19:56.316Z,41.10
2019-03-30T18:22:29.185Z,48.13
2019-03-30T18:25:04.189Z,122.90
2019-03-30T18:27:34.385Z,129.10
2019-03-30T18:30:07.207Z,63.60
2019-03-30T18:32:36.652Z,28.73
2019-03-30T18:35:06.791Z,25.87
2019-03-30T18:37:38.097Z,35.27
2019-03-30T18:40:09.799Z,28.73
2019-03-30T18:42:39.559Z,31.73
2019-03-30T18:45:13.866Z,28.23
2019-03-30T18:47:43.793Z,26.00
2019-03-30T18:50:13.200Z,23.77
2019-03-30T18:52:43.255Z,26.60
2019-03-30T18:55:14.169Z,25.50
2019-03-30T18:57:43.949Z,38.73
2019-03-30T19:00:14.949Z,35.73
2019-03-30T19:02:44.556Z,26.00
2019-03-30T19:05:19.142Z,22.43
2019-03-30T19:07:48.722Z,25.23
2019-03-30T19:10:18.442Z,25.40
2019-03-30T19:12:48.950Z,22.97
2019-03-30T19:15:21.646Z,24.53
2019-03-30T19:17:51.050Z,23.17
2019-03-30T19:20:20.863Z,24.77
2019-03-30T19:22:50.205Z,22.03
2019-03-30T19:25:21.078Z,22.73
2019-03-30T19:27:51.383Z,22.97
2019-03-30T19:30:22.044Z,24.17
2019-03-30T19:32:51.247Z,22.97
2019-03-30T19:35:20.541Z,23.23
2019-03-30T19:37:51.130Z,28.57
2019-03-30T19:40:20.339Z,28.17
2019-03-30T19:42:49.843Z,30.33
2019-03-30T19:45:22.958Z,28.90
2019-03-30T19:47:52.310Z,29.57
2019-03-30T19:50:21.874Z,30.13
2019-03-30T19:52:56.179Z,27.60
2019-03-30T19:55:25.569Z,32.37
2019-03-30T19:57:56.766Z,29.63
2019-03-30T20:00:32.244Z,26.90
2019-03-30T20:03:04.216Z,26.53
2019-03-30T20:05:35.665Z,28.10
2019-03-30T20:08:12.424Z,32.50
2019-03-30T20:10:39.193Z,29.77
2019-03-30T20:13:09.860Z,36.50
2019-03-30T20:15:39.921Z,36.67
2019-03-30T20:18:09.612Z,41.17
2019-03-30T20:20:38.788Z,41.10
2019-03-30T20:23:08.330Z,40.60
2019-03-30T20:25:40.371Z,37.73
2019-03-30T20:28:10.027Z,42.40
2019-03-30T20:30:40.470Z,42.23
2019-03-30T20:33:11.127Z,37.33
2019-03-30T20:35:41.257Z,38.30
2019-03-30T20:38:10.768Z,45.27
2019-03-30T20:40:40.788Z,44.00
2019-03-30T20:43:10.140Z,41.03
2019-03-30T20:45:42.435Z,41.43
2019-03-30T20:48:13.128Z,36.80
2019-03-30T20:50:47.143Z,36.80
2019-03-30T20:53:17.809Z,31.10
2019-03-30T20:55:47.258Z,30.87
2019-03-30T20:58:19.401Z,33.77
2019-03-30T21:00:49.393Z,38.40
2019-03-30T21:03:19.332Z,33.43
2019-03-30T21:05:55.345Z,32.43
2019-03-30T21:08:25.730Z,34.00
2019-03-30T21:10:56.533Z,32.93
2019-03-30T21:13:32.025Z,36.53
2019-03-30T21:16:03.342Z,33.67
2019-03-30T21:18:38.760Z,33.90
2019-03-30T21:21:09.319Z,31.73
2019-03-30T21:23:40.915Z,35.80
2019-03-30T21:26:12.595Z,29.57
2019-03-30T21:28:42.574Z,29.63
2019-03-30T21:31:13.898Z,32.83
2019-03-30T21:33:46.222Z,37.40
2019-03-30T21:36:16.940Z,30.73
2019-03-30T21:38:49.507Z,31.33
2019-03-30T21:41:23.522Z,32.30
2019-03-30T21:44:03.121Z,30.37
2019-03-30T21:46:45.157Z,28.13
2019-03-30T21:49:19.874Z,32.00
2019-03-30T21:51:53.629Z,30.43
2019-03-30T21:54:24.680Z,29.43
2019-03-30T21:56:59.763Z,28.77
2019-03-30T21:59:33.614Z,25.87
2019-03-30T22:02:10.083Z,31.03
2019-03-30T22:04:53.219Z,28.83
2019-03-30T22:07:23.042Z,30.07
2019-03-30T22:09:55.382Z,31.40
2019-03-30T22:12:26.188Z,29.90
2019-03-30T22:14:55.589Z,30.37
2019-03-30T22:17:25.365Z,28.00
2019-03-30T22:19:55.911Z,25.00
2019-03-30T22:22:25.698Z,27.43
2019-03-30T22:24:55.429Z,28.20
2019-03-30T22:27:29.104Z,24.87
2019-03-30T22:29:58.980Z,26.20
2019-03-30T22:32:29.909Z,34.03
2019-03-30T22:35:03.017Z,26.80
2019-03-30T22:37:33.679Z,31.00
2019-03-30T22:40:04.694Z,29.57
2019-03-30T22:42:37.386Z,29.20
2019-03-30T22:45:08.034Z,27.73
2019-03-30T22:47:37.266Z,31.90
2019-03-30T22:50:08.121Z,28.60
2019-03-30T22:52:38.875Z,39.27
2019-03-30T22:55:10.274Z,30.10
2019-03-30T22:57:40.900Z,33.30
2019-03-30T23:00:38.246Z,31.07
2019-03-30T23:02:56.762Z,28.00
2019-03-30T23:05:27.014Z,28.10
2019-03-30T23:07:57.832Z,33.67
2019-03-30T23:10:27.971Z,30.27
2019-03-30T23:13:01.013Z,28.83
2019-03-30T23:15:30.573Z,28.40
2019-03-30T23:18:00.384Z,25.87
2019-03-30T23:20:29.647Z,23.93
2019-03-30T23:23:03.057Z,25.63
2019-03-30T23:25:33.619Z,27.93
2019-03-30T23:28:03.179Z,25.43
2019-03-30T23:30:53.164Z,28.37
2019-03-30T23:33:11.779Z,26.50
2019-03-30T23:35:41.112Z,28.50
2019-03-30T23:38:10.985Z,27.13
2019-03-30T23:40:40.469Z,28.63
2019-03-30T23:43:10.123Z,29.23
2019-03-30T23:45:39.564Z,25.10
2019-03-30T23:48:09.332Z,22.83
2019-03-30T23:50:38.983Z,24.87
2019-03-30T23:53:08.850Z,25.17
2019-03-30T23:55:38.230Z,29.33
2019-03-30T23:58:07.794Z,25.83
